createdAt,value
2023-08-18T00:00:43.885Z,20.41
2023-08-18T00:01:46.861Z,20.42
2023-08-18T00:02:49.600Z,20.44
2023-08-18T00:03:52.416Z,20.41
2023-08-18T00:04:55.120Z,20.47
2023-08-18T00:05:57.716Z,20.46
2023-08-18T00:07:00.662Z,20.46
2023-08-18T00:08:03.309Z,20.48
2023-08-18T00:09:06.228Z,20.47
2023-08-18T00:10:09.456Z,20.47
2023-08-18T00:11:12.116Z,20.44
2023-08-18T00:12:15.006Z,20.45
2023-08-18T00:13:17.745Z,20.33
2023-08-18T00:14:20.405Z,20.49
2023-08-18T00:15:23.098Z,20.50
2023-08-18T00:16:25.836Z,20.52
2023-08-18T00:17:29.122Z,20.50
2023-08-18T00:18:32.310Z,20.49
2023-08-18T00:19:34.920Z,20.49
2023-08-18T00:20:37.520Z,20.57
2023-08-18T00:21:41.352Z,20.58
2023-08-18T00:22:45.073Z,20.58
2023-08-18T00:23:47.749Z,20.58
2023-08-18T00:24:50.424Z,20.57
2023-08-18T00:25:53.181Z,20.57
2023-08-18T00:26:55.814Z,20.56
2023-08-18T00:27:58.828Z,20.51
2023-08-18T00:29:01.540Z,20.48
2023-08-18T00:30:05.036Z,20.46
2023-08-18T00:31:07.776Z,20.25
2023-08-18T00:32:10.653Z,20.46
2023-08-18T00:33:14.550Z,20.46
2023-08-18T00:34:17.203Z,20.45
2023-08-18T00:35:19.875Z,20.45
2023-08-18T00:36:22.976Z,20.45
2023-08-18T00:37:25.650Z,20.39
2023-08-18T00:38:28.844Z,20.32
2023-08-18T00:39:32.402Z,20.25
2023-08-18T00:40:35.127Z,20.30
2023-08-18T00:41:37.847Z,20.32
2023-08-18T00:42:40.545Z,20.30
2023-08-18T00:43:43.658Z,20.26
2023-08-18T00:44:46.307Z,20.27
2023-08-18T00:45:51.203Z,20.21
2023-08-18T00:46:54.323Z,20.12
2023-08-18T00:47:57.304Z,20.02
2023-08-18T00:49:05.837Z,20.05
2023-08-18T00:50:11.650Z,20.12
2023-08-18T00:51:14.781Z,20.14
2023-08-18T00:52:19.442Z,20.14
2023-08-18T00:53:24.366Z,20.11
2023-08-18T00:54:28.534Z,20.14
2023-08-18T00:55:31.339Z,20.14
2023-08-18T00:56:34.675Z,20.15
2023-08-18T00:57:38.286Z,20.06
2023-08-18T00:58:41.251Z,19.91
2023-08-18T00:59:44.770Z,19.73
2023-08-18T01:00:49.457Z,19.49
2023-08-18T01:01:52.913Z,19.39
2023-08-18T01:02:55.918Z,19.36
2023-08-18T01:04:01.622Z,19.62
2023-08-18T01:05:04.741Z,19.74
2023-08-18T01:06:07.448Z,19.83
2023-08-18T01:07:10.184Z,19.92
2023-08-18T01:08:12.799Z,19.86
2023-08-18T01:09:15.710Z,19.81
2023-08-18T01:10:19.177Z,19.81
2023-08-18T01:11:25.349Z,19.81
2023-08-18T01:13:05.303Z,19.84
2023-08-18T01:14:17.589Z,19.96
2023-08-18T01:15:31.663Z,20.12
2023-08-18T01:16:36.387Z,20.18
2023-08-18T01:17:48.912Z,20.20
2023-08-18T01:18:52.887Z,20.11
2023-08-18T01:19:56.362Z,19.96
2023-08-18T01:21:01.109Z,19.94
2023-08-18T01:22:13.187Z,19.89
2023-08-18T01:23:16.026Z,19.94
2023-08-18T01:24:18.766Z,19.97
2023-08-18T01:25:21.549Z,20.01
2023-08-18T01:26:24.453Z,20.09
2023-08-18T01:27:29.975Z,20.11
2023-08-18T01:28:34.475Z,20.19
2023-08-18T01:29:38.570Z,20.20
2023-08-18T01:30:49.565Z,20.27
2023-08-18T01:31:56.235Z,20.24
2023-08-18T01:33:22.935Z,20.33
2023-08-18T01:34:27.408Z,20.41
2023-08-18T01:35:31.012Z,20.44
2023-08-18T01:36:39.826Z,20.52
2023-08-18T01:37:44.228Z,20.54
2023-08-18T01:38:49.228Z,20.59
2023-08-18T01:39:53.657Z,20.60
2023-08-18T01:40:58.752Z,20.57
2023-08-18T01:42:03.096Z,20.58
2023-08-18T01:43:06.303Z,20.58
2023-08-18T01:44:09.004Z,20.58
2023-08-18T01:45:12.679Z,20.62
2023-08-18T01:46:15.406Z,20.60
2023-08-18T01:47:18.109Z,20.59
2023-08-18T01:48:21.066Z,20.59
2023-08-18T01:49:23.791Z,20.57
2023-08-18T01:50:26.513Z,20.59
2023-08-18T01:51:29.221Z,20.58
2023-08-18T01:52:31.888Z,20.60
2023-08-18T01:53:34.971Z,20.67
2023-08-18T01:54:37.621Z,20.63
2023-08-18T01:55:40.229Z,20.62
2023-08-18T01:56:42.908Z,20.61
2023-08-18T01:57:45.613Z,20.62
2023-08-18T01:58:48.556Z,20.55
2023-08-18T01:59:51.222Z,20.59
2023-08-18T02:00:56.885Z,20.57
2023-08-18T02:02:00.001Z,20.52
2023-08-18T02:03:02.891Z,20.41
2023-08-18T02:04:05.684Z,20.52
2023-08-18T02:05:10.531Z,20.52
2023-08-18T02:06:13.153Z,20.51
2023-08-18T02:07:16.117Z,20.50
2023-08-18T02:08:18.718Z,20.51
2023-08-18T02:09:21.379Z,20.51
2023-08-18T02:10:24.082Z,20.47
2023-08-18T02:11:26.796Z,20.43
2023-08-18T02:12:29.696Z,20.43
2023-08-18T02:13:33.405Z,20.40
2023-08-18T02:14:36.142Z,20.37
2023-08-18T02:15:38.780Z,20.37
2023-08-18T02:16:42.488Z,20.34
2023-08-18T02:17:45.178Z,20.32
2023-08-18T02:18:48.991Z,20.31
2023-08-18T02:19:51.661Z,20.31
2023-08-18T02:21:01.508Z,20.30
2023-08-18T02:22:04.916Z,20.28
2023-08-18T02:23:07.959Z,20.32
2023-08-18T02:24:11.852Z,20.32
2023-08-18T02:25:14.634Z,20.33
2023-08-18T02:26:18.012Z,20.33
2023-08-18T02:27:21.050Z,20.33
2023-08-18T02:28:23.759Z,20.35
2023-08-18T02:29:26.538Z,20.37
2023-08-18T02:30:30.182Z,20.39
2023-08-18T02:31:32.990Z,20.41
2023-08-18T02:32:36.275Z,20.38
2023-08-18T02:33:40.286Z,20.39
2023-08-18T02:34:43.022Z,20.37
2023-08-18T02:35:46.199Z,20.38
2023-08-18T02:36:49.778Z,20.36
2023-08-18T02:37:52.698Z,20.34
2023-08-18T02:38:55.285Z,20.34
2023-08-18T02:39:58.671Z,20.32
2023-08-18T02:41:01.324Z,20.37
2023-08-18T02:42:04.686Z,20.34
2023-08-18T02:43:07.572Z,20.30
2023-08-18T02:44:11.144Z,20.33
2023-08-18T02:45:13.868Z,20.33
2023-08-18T02:46:17.519Z,20.39
2023-08-18T02:47:20.221Z,20.39
2023-08-18T02:48:24.318Z,20.41
2023-08-18T02:49:26.959Z,20.44
2023-08-18T02:50:29.974Z,20.42
2023-08-18T02:51:32.660Z,20.41
2023-08-18T02:52:36.047Z,20.40
2023-08-18T02:53:39.383Z,20.37
2023-08-18T02:54:42.112Z,20.35
2023-08-18T02:55:44.770Z,20.33
2023-08-18T02:56:47.397Z,20.30
2023-08-18T02:57:50.079Z,20.30
2023-08-18T02:58:54.007Z,20.17
2023-08-18T02:59:56.980Z,20.28
2023-08-18T03:01:05.287Z,20.24
2023-08-18T03:02:08.486Z,20.33
2023-08-18T03:03:11.235Z,20.35
2023-08-18T03:04:15.628Z,20.32
2023-08-18T03:05:18.303Z,20.32
2023-08-18T03:06:21.089Z,20.32
2023-08-18T03:07:23.704Z,20.36
2023-08-18T03:08:26.751Z,20.47
2023-08-18T03:09:29.770Z,20.49
2023-08-18T03:10:32.581Z,20.47
2023-08-18T03:11:35.374Z,20.47
2023-08-18T03:12:38.071Z,20.44
2023-08-18T03:13:40.683Z,20.43
2023-08-18T03:14:43.697Z,20.48
2023-08-18T03:15:46.331Z,20.49
2023-08-18T03:16:49.113Z,20.45
2023-08-18T03:17:51.801Z,20.46
2023-08-18T03:18:54.527Z,20.42
2023-08-18T03:19:57.622Z,20.43
2023-08-18T03:21:02.434Z,20.45
2023-08-18T03:22:05.776Z,20.50
2023-08-18T03:23:08.577Z,20.49
2023-08-18T03:24:14.550Z,20.56
2023-08-18T03:25:18.273Z,20.56
2023-08-18T03:26:20.886Z,20.54
2023-08-18T03:27:23.844Z,20.35
2023-08-18T03:28:26.534Z,20.59
2023-08-18T03:29:29.122Z,20.57
2023-08-18T03:30:32.369Z,20.52
2023-08-18T03:31:35.562Z,20.51
2023-08-18T03:32:39.539Z,20.51
2023-08-18T03:33:43.044Z,20.47
2023-08-18T03:34:50.291Z,20.48
2023-08-18T03:35:59.566Z,20.50
2023-08-18T03:37:02.145Z,20.53
2023-08-18T03:38:05.023Z,20.52
2023-08-18T03:39:07.989Z,20.60
2023-08-18T03:40:11.134Z,20.64
2023-08-18T03:41:14.141Z,20.58
2023-08-18T03:42:16.761Z,20.56
2023-08-18T03:43:19.569Z,20.59
2023-08-18T03:44:22.374Z,20.67
2023-08-18T03:45:25.479Z,20.69
2023-08-18T03:46:28.551Z,20.65
2023-08-18T03:47:31.691Z,20.65
2023-08-18T03:48:34.768Z,20.65
2023-08-18T03:49:37.928Z,20.68
2023-08-18T03:50:41.067Z,20.72
2023-08-18T03:51:44.040Z,20.73
2023-08-18T03:52:47.164Z,20.69
2023-08-18T03:53:50.864Z,20.70
2023-08-18T03:54:53.560Z,20.75
2023-08-18T03:55:58.228Z,20.76
2023-08-18T03:57:01.399Z,20.75
2023-08-18T03:58:04.448Z,20.75
2023-08-18T03:59:09.143Z,20.74
2023-08-18T04:00:13.274Z,20.74
2023-08-18T04:01:16.405Z,20.71
2023-08-18T04:02:20.788Z,20.71
2023-08-18T04:03:23.481Z,20.71
2023-08-18T04:04:26.756Z,20.69
2023-08-18T04:05:29.463Z,20.74
2023-08-18T04:06:32.954Z,20.70
2023-08-18T04:07:36.626Z,20.64
2023-08-18T04:08:43.955Z,20.69
2023-08-18T04:09:46.940Z,20.68
2023-08-18T04:10:50.950Z,20.65
2023-08-18T04:11:54.812Z,20.70
2023-08-18T04:12:59.664Z,20.72
2023-08-18T04:14:04.569Z,20.49
2023-08-18T04:15:08.701Z,20.74
2023-08-18T04:16:12.425Z,20.77
2023-08-18T04:17:16.701Z,20.72
2023-08-18T04:18:20.526Z,20.70
2023-08-18T04:19:23.393Z,20.56
2023-08-18T04:20:26.499Z,20.59
2023-08-18T04:21:29.333Z,20.53
2023-08-18T04:22:32.297Z,20.47
2023-08-18T04:23:35.440Z,20.47
2023-08-18T04:24:38.239Z,20.42
2023-08-18T04:25:44.797Z,20.46
2023-08-18T04:26:48.434Z,20.42
2023-08-18T04:27:51.211Z,20.38
2023-08-18T04:28:54.663Z,20.45
2023-08-18T04:29:57.394Z,20.45
2023-08-18T04:31:00.376Z,20.52
2023-08-18T04:32:05.460Z,20.51
2023-08-18T04:33:08.384Z,20.47
2023-08-18T04:34:11.343Z,20.52
2023-08-18T04:35:14.290Z,20.50
2023-08-18T04:36:17.303Z,20.58
2023-08-18T04:37:20.022Z,20.61
2023-08-18T04:38:23.175Z,20.62
2023-08-18T04:39:28.831Z,20.58
2023-08-18T04:40:31.536Z,20.58
2023-08-18T04:41:34.705Z,20.50
2023-08-18T04:42:38.378Z,20.58
2023-08-18T04:43:41.963Z,20.65
2023-08-18T04:44:45.196Z,20.67
2023-08-18T04:45:49.205Z,20.71
2023-08-18T04:46:51.826Z,20.67
2023-08-18T04:47:56.323Z,20.73
2023-08-18T04:49:00.268Z,20.75
2023-08-18T04:50:06.161Z,20.74
2023-08-18T04:51:09.348Z,20.70
2023-08-18T04:52:12.359Z,20.70
2023-08-18T04:53:15.011Z,20.79
2023-08-18T04:54:19.288Z,20.79
2023-08-18T04:55:22.667Z,20.81
2023-08-18T04:56:25.663Z,20.78
2023-08-18T04:57:28.416Z,20.76
2023-08-18T04:58:31.172Z,20.83
2023-08-18T04:59:34.548Z,20.88
2023-08-18T05:00:38.298Z,20.91
2023-08-18T05:01:43.602Z,20.88
2023-08-18T05:02:46.671Z,20.91
2023-08-18T05:03:50.194Z,20.91
2023-08-18T05:04:56.014Z,20.95
2023-08-18T05:06:09.456Z,20.97
2023-08-18T05:07:12.823Z,20.98
2023-08-18T05:08:15.425Z,20.94
2023-08-18T05:09:19.378Z,20.95
2023-08-18T05:10:22.241Z,20.87
2023-08-18T05:11:29.606Z,20.87
2023-08-18T05:12:32.620Z,20.89
2023-08-18T05:13:36.002Z,20.97
2023-08-18T05:14:38.705Z,20.97
2023-08-18T05:15:41.348Z,21.04
2023-08-18T05:16:44.726Z,21.06
2023-08-18T05:17:47.378Z,21.06
2023-08-18T05:18:53.377Z,21.08
2023-08-18T05:19:57.887Z,21.11
2023-08-18T05:21:02.114Z,21.12
2023-08-18T05:22:05.154Z,21.11
2023-08-18T05:23:07.840Z,21.12
2023-08-18T05:24:10.533Z,21.14
2023-08-18T05:25:14.818Z,21.16
2023-08-18T05:26:17.739Z,21.17
2023-08-18T05:27:21.437Z,21.17
2023-08-18T05:28:25.344Z,21.24
2023-08-18T05:29:27.975Z,21.25
2023-08-18T05:30:30.717Z,21.29
2023-08-18T05:31:33.591Z,21.32
2023-08-18T05:32:37.301Z,21.31
2023-08-18T05:33:40.102Z,21.38
2023-08-18T05:34:42.934Z,21.37
2023-08-18T05:35:45.803Z,21.46
2023-08-18T05:36:48.624Z,21.53
2023-08-18T05:37:51.632Z,21.57
2023-08-18T05:38:55.323Z,21.64
2023-08-18T05:39:58.692Z,21.82
2023-08-18T05:41:11.245Z,22.07
2023-08-18T05:42:14.655Z,22.32
2023-08-18T05:43:19.858Z,22.51
2023-08-18T05:44:22.823Z,22.71
2023-08-18T05:45:27.129Z,22.78
2023-08-18T05:46:29.927Z,22.64
2023-08-18T05:47:32.664Z,22.65
2023-08-18T05:48:35.940Z,22.56
2023-08-18T05:49:38.583Z,22.54
2023-08-18T05:50:41.947Z,22.53
2023-08-18T05:51:45.701Z,22.50
2023-08-18T05:52:48.313Z,22.56
2023-08-18T05:53:53.541Z,22.51
2023-08-18T05:54:56.240Z,22.49
2023-08-18T05:55:59.070Z,22.46
2023-08-18T05:57:01.745Z,22.45
2023-08-18T05:58:05.526Z,22.41
2023-08-18T05:59:08.426Z,22.43
2023-08-18T06:00:13.817Z,22.43
2023-08-18T06:01:16.403Z,22.47
2023-08-18T06:02:19.706Z,22.46
2023-08-18T06:03:25.146Z,22.47
2023-08-18T06:04:27.930Z,21.88
2023-08-18T06:05:30.712Z,22.49
2023-08-18T06:06:34.889Z,22.47
2023-08-18T06:07:38.339Z,22.47
2023-08-18T06:08:41.012Z,22.51
2023-08-18T06:09:43.739Z,22.47
2023-08-18T06:10:47.937Z,22.46
2023-08-18T06:11:50.604Z,22.45
2023-08-18T06:12:53.846Z,22.51
2023-08-18T06:13:56.432Z,22.59
2023-08-18T06:14:59.265Z,22.67
2023-08-18T06:16:08.791Z,22.66
2023-08-18T06:17:11.506Z,22.75
2023-08-18T06:18:18.085Z,22.76
2023-08-18T06:19:20.754Z,22.84
2023-08-18T06:20:23.422Z,22.95
2023-08-18T06:21:26.396Z,23.23
2023-08-18T06:22:29.406Z,23.21
2023-08-18T06:23:32.547Z,23.35
2023-08-18T06:24:36.120Z,23.34
2023-08-18T06:25:41.967Z,23.40
2023-08-18T06:26:44.597Z,23.41
2023-08-18T06:27:47.331Z,23.37
2023-08-18T06:28:50.207Z,23.41
2023-08-18T06:29:54.122Z,23.42
2023-08-18T06:31:09.403Z,23.43
2023-08-18T06:32:12.013Z,23.32
2023-08-18T06:33:14.778Z,23.35
2023-08-18T06:34:17.673Z,23.50
2023-08-18T06:35:20.244Z,23.59
2023-08-18T06:36:23.020Z,23.71
2023-08-18T06:37:26.914Z,23.89
2023-08-18T06:38:29.791Z,24.19
2023-08-18T06:39:34.486Z,24.57
2023-08-18T06:40:37.057Z,24.89
2023-08-18T06:41:41.037Z,24.98
2023-08-18T06:42:46.430Z,24.95
2023-08-18T06:43:49.195Z,24.86
2023-08-18T06:44:54.782Z,24.96
2023-08-18T06:45:57.398Z,24.98
2023-08-18T06:47:00.050Z,25.25
2023-08-18T06:48:03.184Z,25.35
2023-08-18T06:49:06.030Z,25.50
2023-08-18T06:50:11.176Z,25.59
2023-08-18T06:51:15.693Z,25.33
2023-08-18T06:52:18.580Z,25.25
2023-08-18T06:53:21.822Z,25.57
2023-08-18T06:54:24.444Z,25.82
2023-08-18T06:55:31.096Z,25.76
2023-08-18T06:56:49.976Z,26.08
2023-08-18T06:57:53.473Z,26.25
2023-08-18T06:58:56.156Z,26.41
2023-08-18T06:59:58.856Z,26.56
2023-08-18T07:01:01.803Z,26.68
2023-08-18T07:02:04.528Z,26.95
2023-08-18T07:03:07.517Z,27.03
2023-08-18T07:04:11.639Z,27.01
2023-08-18T07:05:14.415Z,27.24
2023-08-18T07:06:17.508Z,27.39
2023-08-18T07:07:20.234Z,27.27
2023-08-18T07:08:23.763Z,27.39
2023-08-18T07:09:26.523Z,27.40
2023-08-18T07:10:29.269Z,27.37
2023-08-18T07:11:32.547Z,27.28
2023-08-18T07:12:35.530Z,27.39
2023-08-18T07:13:38.512Z,27.39
2023-08-18T07:14:41.288Z,27.45
2023-08-18T07:15:44.039Z,27.33
2023-08-18T07:16:46.995Z,27.45
2023-08-18T07:17:49.682Z,27.53
2023-08-18T07:18:53.004Z,27.78
2023-08-18T07:19:55.764Z,27.76
2023-08-18T07:21:00.793Z,27.84
2023-08-18T07:22:05.902Z,27.73
2023-08-18T07:23:09.539Z,27.80
2023-08-18T07:24:12.249Z,27.93
2023-08-18T07:25:15.058Z,28.03
2023-08-18T07:26:17.811Z,28.07
2023-08-18T07:27:22.891Z,28.05
2023-08-18T07:28:25.901Z,28.17
2023-08-18T07:29:28.576Z,28.29
2023-08-18T07:30:31.356Z,28.16
2023-08-18T07:31:34.034Z,28.29
2023-08-18T07:32:37.816Z,28.31
2023-08-18T07:33:40.829Z,28.55
2023-08-18T07:34:43.515Z,28.52
2023-08-18T07:35:47.525Z,28.72
2023-08-18T07:36:50.778Z,28.48
2023-08-18T07:37:56.233Z,28.56
2023-08-18T07:38:59.202Z,28.54
2023-08-18T07:40:01.907Z,28.66
2023-08-18T07:41:04.617Z,28.78
2023-08-18T07:42:07.826Z,28.63
2023-08-18T07:43:11.869Z,28.67
2023-08-18T07:44:14.570Z,28.86
2023-08-18T07:45:17.279Z,28.95
2023-08-18T07:46:24.243Z,28.97
2023-08-18T07:47:26.924Z,28.98
2023-08-18T07:48:30.172Z,29.03
2023-08-18T07:49:32.923Z,28.72
2023-08-18T07:50:35.594Z,28.89
2023-08-18T07:51:40.553Z,28.71
2023-08-18T07:52:43.188Z,28.81
2023-08-18T07:53:46.452Z,28.93
2023-08-18T07:54:49.186Z,29.15
2023-08-18T07:55:52.919Z,29.03
2023-08-18T07:56:55.632Z,29.26
2023-08-18T07:57:58.294Z,29.29
2023-08-18T07:59:03.186Z,29.37
2023-08-18T08:00:20.935Z,29.41
2023-08-18T08:01:28.879Z,29.49
2023-08-18T08:02:31.696Z,29.76
2023-08-18T08:03:34.710Z,29.71
2023-08-18T08:04:39.029Z,29.91
2023-08-18T08:05:41.666Z,29.73
2023-08-18T08:06:44.711Z,29.54
2023-08-18T08:07:48.967Z,29.83
2023-08-18T08:08:52.064Z,29.85
2023-08-18T08:09:58.007Z,29.77
2023-08-18T08:11:00.743Z,29.94
2023-08-18T08:12:04.323Z,30.18
2023-08-18T08:13:06.985Z,30.42
2023-08-18T08:14:09.806Z,30.40
2023-08-18T08:15:17.466Z,30.56
2023-08-18T08:16:20.214Z,30.53
2023-08-18T08:17:23.882Z,30.29
2023-08-18T08:18:26.937Z,30.53
2023-08-18T08:19:29.613Z,30.54
2023-08-18T08:20:32.342Z,30.70
2023-08-18T08:21:39.722Z,30.49
2023-08-18T08:22:47.572Z,30.69
2023-08-18T08:23:50.231Z,30.52
2023-08-18T08:24:56.051Z,30.55
2023-08-18T08:25:58.803Z,30.29
2023-08-18T08:27:01.440Z,30.34
2023-08-18T08:28:04.944Z,30.11
2023-08-18T08:29:07.888Z,30.39
2023-08-18T08:30:33.725Z,30.44
2023-08-18T08:31:38.721Z,30.61
2023-08-18T08:32:44.030Z,30.78
2023-08-18T08:33:47.012Z,30.86
2023-08-18T08:34:51.254Z,30.89
2023-08-18T08:35:53.858Z,30.78
2023-08-18T08:36:56.493Z,30.75
2023-08-18T08:37:59.578Z,30.63
2023-08-18T08:39:05.192Z,30.56
2023-08-18T08:40:11.524Z,30.90
2023-08-18T08:41:14.262Z,30.83
2023-08-18T08:42:17.183Z,31.02
2023-08-18T08:43:20.102Z,30.97
2023-08-18T08:44:23.126Z,31.11
2023-08-18T08:45:27.757Z,31.36
2023-08-18T08:46:31.630Z,31.23
2023-08-18T08:47:34.433Z,30.83
2023-08-18T08:48:39.503Z,31.04
2023-08-18T08:49:46.652Z,30.87
2023-08-18T08:50:55.632Z,31.01
2023-08-18T08:52:07.017Z,30.98
2023-08-18T08:53:13.404Z,31.08
2023-08-18T08:54:23.076Z,31.26
2023-08-18T08:55:32.418Z,31.44
2023-08-18T08:56:37.207Z,31.53
2023-08-18T08:57:40.192Z,31.10
2023-08-18T08:58:43.941Z,30.87
2023-08-18T08:59:46.673Z,30.88
2023-08-18T09:00:49.788Z,30.83
2023-08-18T09:01:53.716Z,30.59
2023-08-18T09:03:01.920Z,30.33
2023-08-18T09:04:09.788Z,30.28
2023-08-18T09:05:12.861Z,30.34
2023-08-18T09:06:16.000Z,30.53
2023-08-18T09:07:18.899Z,30.54
2023-08-18T09:08:22.308Z,30.66
2023-08-18T09:09:25.230Z,30.87
2023-08-18T09:10:28.553Z,30.78
2023-08-18T09:11:43.830Z,31.23
2023-08-18T09:12:47.476Z,31.32
2023-08-18T09:13:50.124Z,30.95
2023-08-18T09:14:54.876Z,30.52
2023-08-18T09:15:58.336Z,30.52
2023-08-18T09:17:02.498Z,30.95
2023-08-18T09:18:05.954Z,31.17
2023-08-18T09:19:13.003Z,31.33
2023-08-18T09:20:15.926Z,31.44
2023-08-18T09:21:20.428Z,31.54
2023-08-18T09:22:23.457Z,31.81
2023-08-18T09:23:28.522Z,32.16
2023-08-18T09:24:33.628Z,31.74
2023-08-18T09:25:36.430Z,31.88
2023-08-18T09:26:45.550Z,32.06
2023-08-18T09:27:48.741Z,32.19
2023-08-18T09:28:52.254Z,32.13
2023-08-18T09:29:58.579Z,32.41
2023-08-18T09:31:01.361Z,32.47
2023-08-18T09:32:04.633Z,32.28
2023-08-18T09:33:08.073Z,32.34
2023-08-18T09:34:19.385Z,32.58
2023-08-18T09:35:22.301Z,32.50
2023-08-18T09:36:26.537Z,32.46
2023-08-18T09:37:32.860Z,32.54
2023-08-18T09:38:40.956Z,32.32
2023-08-18T09:39:44.020Z,32.18
2023-08-18T09:40:55.251Z,32.23
2023-08-18T09:41:58.397Z,32.19
2023-08-18T09:44:08.289Z,32.64
2023-08-18T09:45:13.259Z,32.81
2023-08-18T09:46:18.372Z,32.48
2023-08-18T09:47:24.061Z,32.33
2023-08-18T09:48:28.173Z,32.47
2023-08-18T09:49:35.269Z,32.71
2023-08-18T09:50:39.315Z,32.31
2023-08-18T09:51:42.732Z,32.66
2023-08-18T09:52:49.371Z,32.85
2023-08-18T09:54:11.388Z,32.83
2023-08-18T09:55:15.925Z,32.57
2023-08-18T09:56:25.033Z,32.76
2023-08-18T09:57:35.236Z,32.94
2023-08-18T09:58:59.733Z,32.70
2023-08-18T10:00:06.154Z,32.83
2023-08-18T10:01:16.743Z,32.83
2023-08-18T10:02:24.819Z,32.82
2023-08-18T10:03:29.780Z,32.99
2023-08-18T10:04:39.441Z,33.16
2023-08-18T10:05:42.809Z,32.79
2023-08-18T10:06:46.525Z,32.79
2023-08-18T10:07:49.482Z,32.76
2023-08-18T10:08:54.426Z,32.86
2023-08-18T10:09:58.248Z,32.80
2023-08-18T10:11:04.057Z,32.80
2023-08-18T10:12:07.299Z,32.92
2023-08-18T10:13:12.240Z,32.91
2023-08-18T10:14:15.609Z,32.74
2023-08-18T10:15:19.219Z,33.02
2023-08-18T10:16:23.041Z,33.12
2023-08-18T10:17:26.058Z,33.16
2023-08-18T10:18:29.128Z,33.13
2023-08-18T10:19:54.195Z,33.11
2023-08-18T10:20:57.231Z,32.99
2023-08-18T10:22:00.162Z,32.70
2023-08-18T10:23:03.975Z,32.84
2023-08-18T10:24:07.741Z,32.99
2023-08-18T10:25:11.058Z,32.57
2023-08-18T10:26:15.527Z,32.77
2023-08-18T10:27:30.136Z,33.19
2023-08-18T10:28:35.364Z,33.39
2023-08-18T10:29:38.603Z,33.42
2023-08-18T10:30:41.486Z,33.26
2023-08-18T10:31:57.403Z,33.30
2023-08-18T10:33:05.900Z,32.96
2023-08-18T10:34:08.536Z,32.88
2023-08-18T10:35:26.707Z,33.17
2023-08-18T10:36:32.012Z,33.47
2023-08-18T10:37:35.565Z,33.70
2023-08-18T10:38:40.613Z,33.83
2023-08-18T10:39:43.335Z,34.03
2023-08-18T10:40:46.333Z,33.96
2023-08-18T10:42:06.203Z,33.91
2023-08-18T10:43:13.365Z,34.11
2023-08-18T10:44:16.049Z,34.33
2023-08-18T10:45:29.672Z,34.24
2023-08-18T10:46:37.381Z,33.97
2023-08-18T10:47:42.239Z,34.11
2023-08-18T10:48:46.377Z,34.16
2023-08-18T10:49:49.333Z,34.21
2023-08-18T10:50:52.070Z,33.94
2023-08-18T10:51:55.075Z,33.92
2023-08-18T10:52:59.229Z,33.79
2023-08-18T10:54:01.860Z,34.05
2023-08-18T10:55:06.194Z,34.00
2023-08-18T10:56:08.853Z,33.73
2023-08-18T10:57:11.848Z,34.01
2023-08-18T10:58:16.323Z,33.66
2023-08-18T10:59:20.544Z,33.34
2023-08-18T11:00:23.334Z,33.44
2023-08-18T11:01:26.151Z,33.64
2023-08-18T11:02:29.670Z,33.91
2023-08-18T11:03:32.615Z,33.87
2023-08-18T11:04:35.473Z,33.64
2023-08-18T11:05:38.295Z,33.96
2023-08-18T11:06:42.403Z,33.95
2023-08-18T11:07:46.237Z,33.77
2023-08-18T11:08:49.463Z,33.53
2023-08-18T11:09:52.130Z,33.54
2023-08-18T11:10:54.953Z,33.78
2023-08-18T11:11:57.747Z,34.05
2023-08-18T11:13:00.907Z,34.18
2023-08-18T11:14:03.963Z,34.25
2023-08-18T11:15:07.943Z,34.13
2023-08-18T11:16:11.343Z,34.16
2023-08-18T11:17:14.737Z,34.30
2023-08-18T11:18:17.838Z,34.14
2023-08-18T11:19:20.429Z,33.96
2023-08-18T11:20:23.754Z,34.02
2023-08-18T11:21:26.489Z,33.83
2023-08-18T11:22:30.399Z,33.70
2023-08-18T11:23:34.039Z,33.99
2023-08-18T11:24:36.828Z,34.02
2023-08-18T11:25:40.532Z,33.75
2023-08-18T11:26:44.968Z,34.04
2023-08-18T11:27:49.352Z,33.92
2023-08-18T11:28:52.439Z,33.85
2023-08-18T11:29:55.136Z,33.95
2023-08-18T11:30:58.100Z,33.93
2023-08-18T11:32:00.824Z,34.05
2023-08-18T11:33:03.814Z,34.25
2023-08-18T11:34:09.044Z,34.51
2023-08-18T11:35:12.736Z,34.37
2023-08-18T11:36:16.364Z,34.69
2023-08-18T11:37:24.709Z,34.61
2023-08-18T11:38:27.359Z,34.29
2023-08-18T11:39:31.522Z,34.16
2023-08-18T11:40:38.226Z,34.35
2023-08-18T11:41:43.648Z,34.22
2023-08-18T11:42:51.199Z,34.35
2023-08-18T11:43:54.209Z,33.91
2023-08-18T11:44:57.200Z,34.02
2023-08-18T11:46:00.341Z,34.18
2023-08-18T11:47:04.360Z,33.86
2023-08-18T11:48:08.388Z,33.94
2023-08-18T11:49:16.735Z,33.82
2023-08-18T11:50:22.725Z,34.09
2023-08-18T11:51:25.331Z,34.22
2023-08-18T11:52:41.244Z,34.34
2023-08-18T11:53:43.991Z,34.14
2023-08-18T11:54:46.686Z,33.79
2023-08-18T11:55:51.911Z,34.06
2023-08-18T11:56:54.764Z,33.58
2023-08-18T11:57:57.505Z,33.83
2023-08-18T11:59:00.177Z,33.62
2023-08-18T12:00:11.647Z,33.83
2023-08-18T12:01:14.607Z,34.13
2023-08-18T12:02:23.811Z,34.35
2023-08-18T12:03:28.536Z,34.04
2023-08-18T12:04:33.468Z,34.21
2023-08-18T12:05:40.005Z,34.42
2023-08-18T12:06:43.126Z,34.59
2023-08-18T12:07:45.921Z,34.66
2023-08-18T12:08:48.543Z,34.56
2023-08-18T12:09:51.194Z,34.12
2023-08-18T12:10:55.510Z,34.11
2023-08-18T12:11:58.622Z,33.62
2023-08-18T12:13:01.521Z,33.89
2023-08-18T12:14:07.612Z,33.77
2023-08-18T12:15:15.098Z,33.82
2023-08-18T12:16:18.167Z,34.03
2023-08-18T12:17:21.142Z,34.15
2023-08-18T12:18:23.827Z,34.26
2023-08-18T12:19:26.441Z,34.43
2023-08-18T12:20:29.168Z,34.07
2023-08-18T12:21:39.162Z,34.12
2023-08-18T12:22:42.220Z,33.77
2023-08-18T12:23:44.912Z,33.97
2023-08-18T12:24:50.530Z,34.09
2023-08-18T12:25:53.223Z,34.31
2023-08-18T12:26:55.950Z,34.41
2023-08-18T12:28:00.000Z,34.52
2023-08-18T12:29:04.747Z,34.41
2023-08-18T12:30:08.768Z,34.45
2023-08-18T12:31:11.583Z,34.69
2023-08-18T12:32:14.572Z,34.35
2023-08-18T12:33:17.695Z,34.37
2023-08-18T12:34:20.788Z,34.45
2023-08-18T12:35:23.526Z,34.63
2023-08-18T12:36:26.543Z,34.49
2023-08-18T12:37:29.999Z,34.41
2023-08-18T12:38:33.124Z,34.48
2023-08-18T12:39:35.820Z,34.47
2023-08-18T12:40:38.416Z,34.48
2023-08-18T12:41:41.143Z,34.49
2023-08-18T12:42:43.817Z,34.42
2023-08-18T12:43:46.848Z,34.38
2023-08-18T12:44:49.408Z,34.43
2023-08-18T12:45:52.051Z,34.47
2023-08-18T12:46:54.761Z,34.50
2023-08-18T12:47:57.492Z,34.33
2023-08-18T12:49:02.315Z,34.37
2023-08-18T12:50:05.854Z,34.21
2023-08-18T12:51:08.659Z,34.34
2023-08-18T12:52:11.826Z,33.93
2023-08-18T12:53:14.516Z,33.83
2023-08-18T12:54:17.485Z,33.92
2023-08-18T12:55:20.259Z,33.73
2023-08-18T12:56:22.967Z,33.84
2023-08-18T12:57:25.742Z,33.90
2023-08-18T12:58:28.387Z,33.93
2023-08-18T12:59:31.275Z,33.74
2023-08-18T13:00:33.907Z,33.64
2023-08-18T13:01:37.783Z,33.51
2023-08-18T13:02:40.512Z,33.53
2023-08-18T13:03:44.908Z,33.61
2023-08-18T13:04:47.877Z,33.76
2023-08-18T13:05:50.543Z,33.57
2023-08-18T13:06:53.307Z,33.52
2023-08-18T13:07:56.219Z,33.55
2023-08-18T13:08:58.978Z,33.68
2023-08-18T13:10:02.092Z,33.78
2023-08-18T13:11:04.855Z,33.89
2023-08-18T13:12:08.105Z,34.03
2023-08-18T13:13:10.929Z,33.89
2023-08-18T13:14:13.588Z,33.61
2023-08-18T13:15:16.588Z,33.67
2023-08-18T13:16:19.225Z,33.76
2023-08-18T13:17:21.932Z,33.73
2023-08-18T13:18:24.598Z,33.78
2023-08-18T13:19:27.788Z,33.63
2023-08-18T13:20:30.953Z,33.73
2023-08-18T13:21:33.576Z,33.67
2023-08-18T13:22:38.937Z,33.60
2023-08-18T13:23:41.665Z,33.54
2023-08-18T13:24:44.346Z,33.57
2023-08-18T13:25:47.362Z,33.44
2023-08-18T13:26:50.133Z,33.46
2023-08-18T13:27:52.753Z,33.36
2023-08-18T13:28:55.469Z,33.29
2023-08-18T13:29:58.107Z,33.39
2023-08-18T13:31:01.016Z,33.31
2023-08-18T13:32:03.825Z,33.40
2023-08-18T13:33:07.223Z,33.43
2023-08-18T13:34:09.934Z,33.47
2023-08-18T13:35:12.658Z,33.31
2023-08-18T13:36:15.623Z,33.22
2023-08-18T13:37:18.331Z,33.11
2023-08-18T13:38:21.010Z,33.10
2023-08-18T13:39:23.762Z,33.16
2023-08-18T13:40:26.478Z,33.36
2023-08-18T13:41:29.426Z,33.03
2023-08-18T13:42:32.414Z,33.19
2023-08-18T13:43:37.956Z,33.22
2023-08-18T13:44:42.810Z,33.10
2023-08-18T13:45:45.703Z,33.09
2023-08-18T13:46:48.688Z,32.89